ルアンダ の空港の天気 - METARとTAF

ルアンダ国際空港 ( FNLU / LAD ) - アンゴラ ルアンダ
飛行場実況気象(Metar)
観測時間09/23 01:00 WAT (09/23 00:00 UTC)
風向・風速南南東 3m/s
視程9000m
天気現象
全天の8割程度の雲 雲底高度 610m
気温22℃
湿度88%
気圧1010hPa
METARFNLU 230000Z 16005KT 9000 BKN020 22/20 Q1010 NOSIG
過去の天気等 Google飛行場航空写真 Wunderground天気予報

過去48時間のMETAR

飛行場予報(TAF)
発表時間: 9/22 23:55 WAT (9/22 22:55 UTC)
予報対象時間: 23日1時 WAT ~ 24日7時 WAT
風向・風速南南西 2m/s
視程8000m
全天の4割程度の雲 雲底高度 610m
23日3時 WAT ~ 23日5時 WAT に徐々に
風向・風速不定 2m/s
視程7000m
全天を覆う雲 雲底高度 610m
23日9時 WAT ~ 23日11時 WAT に徐々に
視程10km以上
TAF FNLU 222255Z 2300/2406 20004KT 8000 SCT020
BECMG 2302/2304 VRB03KT 7000 OVC020
BECMG 2308/2310 9999